• Join FlightAware (Why Join?)
  • Login
  • US Flag GB Flag 
05:46 EST


 

Airport Tracker/Info


-or-


 

Live Flight TrackerFlight Track Log ✈ SWA1718 ✈ 18-Apr-2013 ✈ KAMA - KDEN

Flight Track Log - Related Links

Times and Time Zones

All times are in EDT time to prevent confusion due to time zone crossing. See the SWA1718 flight status page for this flight to view local times or setup timezone preferences in your user account.

Time Position Orientation Groundspeed Altitude Reporting Facility
EDT Latitude Longitude Course Direction KTS MPH feet Rate Location/Type
18:55 35.4200 -101.6683 338° Northwest 242 278 7,800  Level Albuquerque Center
18:56 35.4858 -101.7033 337° Northwest 254 292 11,300 3,480 Climbing Albuquerque Center
18:57 35.7165 -101.9249 338° Northwest  Level FlightAware Approximate
18:57 35.5619 -101.7422 337° Northwest 284 327 15,000  Level Albuquerque Center
18:58 35.8172 -101.9702 342° North  Level FlightAware Approximate
18:58 35.6431 -101.7844 337° Northwest 308 354 18,300  Level Albuquerque Center
18:59 35.9150 -102.0227 342° North  Level FlightAware Approximate
18:59 35.7319 -101.8308 337° Northwest 336 387 21,200  Level Albuquerque Center
19:00 35.8461 -101.8881 338° Northwest 363 418 24,300 2,460 Climbing Albuquerque Center
19:01 35.9461 -101.9417 337° Northwest 387 445 26,300 1,980 Climbing Albuquerque Center
19:02 36.0542 -101.9975 337° Northwest 412 474 28,400 1,980 Climbing Albuquerque Center
19:03 36.1625 -102.0531 338° Northwest 421 484 30,500 2,100 Climbing Albuquerque Center
19:04 36.2708 -102.1100 337° Northwest 422 486 32,800 1,680 Climbing Albuquerque Center
19:05 36.3800 -102.1678 337° Northwest 425 489 34,000 1,500 Climbing Albuquerque Center
19:06 36.5136 -102.2381 337° Northwest 433 498 36,000 960 Climbing Albuquerque Center
19:07 36.6228 -102.2967 337° Northwest 429 494 36,000  Level Albuquerque Center
19:08 36.7319 -102.3556 337° Northwest 428 493 36,000  Level Albuquerque Center
19:09 36.8414 -102.4147 337° Northwest 429 494 36,000  Level Albuquerque Center
19:10 36.9686 -102.4822 337° Northwest 432 497 36,000  Level Albuquerque Center
19:11 37.0814 -102.5431 337° Northwest 432 497 36,000  Level Albuquerque Center
19:12 37.1881 -102.5989 337° Northwest 432 497 36,000  Level Albuquerque Center
19:13 37.2922 -102.6567 336° Northwest 429 494 36,000  Level Albuquerque Center
19:15 37.4158 -102.7242 337° Northwest 432 497 36,000  Level Albuquerque Center
19:15 37.4503 -102.7425 337° Northwest 434 499 36,000  Level Denver Center
19:16 37.5581 -102.7919 340° North 433 498 36,000  Level Denver Center
19:17 37.6919 -102.8342 346° North 443 510 36,000  Level Denver Center
19:18 37.8050 -102.8694 346° North 440 506 36,000  Level Denver Center
19:19 37.9372 -102.9117 346° North 440 506 36,000  Level Denver Center
19:20 38.0472 -102.9456 346° North 439 505 36,000  Level Denver Center
19:21 38.1772 -102.9878 346° North 432 497 36,000  Level Denver Center
19:22 38.2889 -103.0231 346° North 430 495 36,000  Level Denver Center
19:23 38.4192 -103.0650 346° North 430 495 36,000  Level Denver Center
19:24 38.5303 -103.1028 345° North 430 495 36,000 -180 Level Denver Center
19:25 38.6142 -103.2075 316° Northwest 419 482 35,700 -660 Descending Denver Center
19:26 38.6917 -103.3167 312° West 413 475 34,700 -900 Descending Denver Center
19:27 38.7683 -103.4244 312° West 407 468 33,900 -1,920 Descending Denver Center
19:28 38.8444 -103.5328 312° West 406 467 30,800 -3,000 Descending Denver Center
19:29 38.9358 -103.6575 313° West 407 468 27,800 -2,640 Descending Denver Center
19:30 39.0081 -103.7603 312° West 389 448 25,400 -2,340 Descending Denver Center
19:31 39.0756 -103.8592 311° West 369 425 23,100 -2,280 Descending Denver Center
19:32 39.1411 -103.9547 312° West 357 411 20,800 -2,040 Descending Denver Center
19:33 39.2044 -104.0450 312° West 343 395 18,900 -1,800 Descending Denver Center
19:34 39.2669 -104.1417 310° West 326 375 17,200 -1,320 Descending Denver Center
19:35 39.3172 -104.2208 309° West 289 333 16,200 -1,260 Descending Denver Center
19:36 39.3611 -104.2978 306° West 271 312 14,700 -1,620 Descending Denver Center
19:37 39.4108 -104.3728 311° West 260 299 13,000 -1,020 Descending Denver Center
19:38 39.4497 -104.4372 308° West 217 250 12,700 -840 Descending Denver Center
19:40 39.4897 -104.5019 309° West 214 246 11,300 -1,020 Descending Denver Center
19:41 39.5300 -104.5594 312° West 220 253 10,700 -960 Descending Denver Center
19:42 39.5856 -104.5900 337° Northwest 218 251 9,400 -1,260 Descending Denver Center
19:43 39.6453 -104.6250 336° Northwest 213 245 8,200 -1,200 Descending Denver Center
19:44 39.7011 -104.6600 334° Northwest 222 255 7,000 -720 Descending Denver Center
19:45 39.7572 -104.6617 359° North 176 203 6,800 -480 Descending Denver Center
19:46 39.7961 -104.6608 North 144 166 6,100 -780 Descending Denver Center
19:47 39.8358 -104.6614 359° North 140 161 5,300 -780 Descending Denver Center
19:49 39.8500 -104.6667 North  Level FlightAware Approximate
19:56 39.8617 -104.6732 North  Level Estimated
19:57 39.8617 -104.6732 North  Level Estimated